Time;durP1;ratioP1;P1;durP2;ratioP2;P2;SDS_P1;SDS_P2;PMS_P1;PMS_P2;Temp;Humidity;BMP_temperature;BMP_pressure;BME280_temperature;BME280_humidity;BME280_pressure;Samples;Min_cycle;Max_cycle;Signal;HPM_P1;HPM_P2
2023/12/03 00:01:08;;;;;;;14.97;9.17;;;;;;;;;;5045348;28;20217;-87
2023/12/03 00:03:35;;;;;;;10.80;7.00;;;;;;;;;;5049696;28;20205;-88
2023/12/03 00:06:02;;;;;;;13.93;8.90;;;;;;;;;;5044990;28;20204;-88
2023/12/03 00:08:29;;;;;;;14.03;9.50;;;;;;;;;;5039664;28;20563;-87
2023/12/03 00:10:56;;;;;;;9.87;5.60;;;;;;;;;;5033465;28;20238;-88
2023/12/03 00:13:23;;;;;;;10.93;5.03;;;;;;;;;;5038269;28;20240;-88
2023/12/03 00:15:49;;;;;;;11.07;6.00;;;;;;;;;;5046743;28;20213;-88
2023/12/03 00:18:18;;;;;;;14.57;5.87;;;;;;;;;;5038787;28;20676;-88
2023/12/03 00:20:45;;;;;;;4.87;2.93;;;;;;;;;;5045938;28;20280;-88
2023/12/03 00:23:11;;;;;;;7.57;4.57;;;;;;;;;;5039363;28;20217;-88
2023/12/03 00:25:38;;;;;;;11.17;6.20;;;;;;;;;;5035240;28;20580;-88
2023/12/03 00:28:05;;;;;;;10.43;6.43;;;;;;;;;;5039506;28;20206;-88
2023/12/03 00:30:32;;;;;;;6.93;4.90;;;;;;;;;;5046040;28;20274;-88
2023/12/03 00:32:59;;;;;;;11.37;4.33;;;;;;;;;;5048851;28;20206;-88
2023/12/03 00:35:27;;;;;;;8.03;4.60;;;;;;;;;;5035815;28;20232;-88
2023/12/03 00:37:54;;;;;;;7.07;3.47;;;;;;;;;;5049119;28;20204;-88
2023/12/03 00:40:21;;;;;;;11.07;3.13;;;;;;;;;;5048498;28;20229;-88
2023/12/03 00:42:47;;;;;;;6.00;2.73;;;;;;;;;;5037152;28;20222;-88
2023/12/03 00:45:14;;;;;;;8.33;3.67;;;;;;;;;;5033680;28;20207;-88
2023/12/03 00:47:41;;;;;;;8.03;2.47;;;;;;;;;;5048176;28;20212;-88
2023/12/03 00:50:09;;;;;;;9.13;2.60;;;;;;;;;;5048542;28;20217;-88
2023/12/03 00:52:37;;;;;;;15.60;4.30;;;;;;;;;;5051123;28;20205;-87
2023/12/03 00:55:05;;;;;;;14.50;4.70;;;;;;;;;;5046600;28;20211;-88
2023/12/03 00:57:32;;;;;;;14.10;5.23;;;;;;;;;;5044946;28;20225;-88
2023/12/03 00:59:59;;;;;;;6.07;4.53;;;;;;;;;;5051904;28;20240;-89
2023/12/03 01:02:26;;;;;;;9.37;5.67;;;;;;;;;;5039340;28;20213;-88
2023/12/03 01:04:53;;;;;;;9.80;4.77;;;;;;;;;;5045581;28;20207;-88
2023/12/03 01:07:19;;;;;;;12.63;5.30;;;;;;;;;;5045439;28;20206;-87
2023/12/03 01:09:48;;;;;;;11.70;5.17;;;;;;;;;;5032290;28;20614;-88
2023/12/03 01:12:15;;;;;;;10.83;5.23;;;;;;;;;;5045358;28;20230;-88
2023/12/03 01:14:41;;;;;;;8.83;5.10;;;;;;;;;;5025549;28;20216;-88
2023/12/03 01:17:08;;;;;;;15.33;5.27;;;;;;;;;;5051798;28;20217;-87
2023/12/03 01:19:35;;;;;;;10.17;5.37;;;;;;;;;;5052442;28;20233;-88
2023/12/03 01:22:02;;;;;;;7.63;4.47;;;;;;;;;;5039015;28;20629;-87
2023/12/03 01:24:29;;;;;;;8.17;3.83;;;;;;;;;;5051833;28;20642;-88
2023/12/03 01:26:57;;;;;;;8.70;4.03;;;;;;;;;;5051275;28;20220;-88
2023/12/03 01:29:24;;;;;;;9.07;3.93;;;;;;;;;;5051453;28;20201;-88
2023/12/03 01:31:51;;;;;;;6.53;3.97;;;;;;;;;;5036663;28;20206;-88
2023/12/03 01:34:18;;;;;;;8.93;4.03;;;;;;;;;;5039857;28;20223;-88
2023/12/03 01:36:45;;;;;;;3.70;3.13;;;;;;;;;;5051521;28;20205;-88
2023/12/03 01:39:12;;;;;;;6.27;3.33;;;;;;;;;;5051612;28;20693;-88
2023/12/03 01:41:39;;;;;;;9.17;3.97;;;;;;;;;;5051217;28;20786;-87
2023/12/03 01:44:08;;;;;;;7.77;3.90;;;;;;;;;;5042497;28;20210;-89
2023/12/03 01:46:35;;;;;;;9.70;3.27;;;;;;;;;;5045145;28;20218;-87
2023/12/03 01:49:01;;;;;;;9.33;3.60;;;;;;;;;;5041200;28;20337;-88
2023/12/03 01:51:29;;;;;;;8.20;3.57;;;;;;;;;;5037686;28;20213;-88
2023/12/03 01:53:56;;;;;;;9.57;4.70;;;;;;;;;;5050717;28;20206;-88
2023/12/03 01:56:23;;;;;;;11.87;5.40;;;;;;;;;;5051099;28;20266;-87
2023/12/03 01:58:50;;;;;;;10.60;3.87;;;;;;;;;;5050950;28;20211;-88
2023/12/03 02:01:19;;;;;;;11.07;4.30;;;;;;;;;;5046793;28;20255;-87
2023/12/03 02:03:46;;;;;;;7.03;4.47;;;;;;;;;;5041201;28;20267;-87
2023/12/03 02:06:13;;;;;;;8.03;4.03;;;;;;;;;;5046431;28;20237;-88
2023/12/03 02:08:40;;;;;;;11.57;4.27;;;;;;;;;;5042591;28;20237;-88
2023/12/03 02:11:08;;;;;;;10.20;5.00;;;;;;;;;;5032962;28;20241;-87
2023/12/03 02:13:37;;;;;;;13.23;6.30;;;;;;;;;;5031579;28;20210;-87
2023/12/03 02:16:05;;;;;;;8.63;6.47;;;;;;;;;;5044384;28;20202;-88
2023/12/03 02:18:34;;;;;;;17.20;7.23;;;;;;;;;;5031582;28;20202;-88
2023/12/03 02:21:01;;;;;;;14.93;7.73;;;;;;;;;;5049056;28;20226;-88
2023/12/03 02:23:30;;;;;;;8.50;4.70;;;;;;;;;;5038998;28;20211;-87
2023/12/03 02:25:57;;;;;;;9.47;5.07;;;;;;;;;;5036988;28;20214;-87
2023/12/03 02:28:24;;;;;;;14.93;7.37;;;;;;;;;;5038179;28;20222;-88
2023/12/03 02:30:51;;;;;;;10.23;6.50;;;;;;;;;;5030934;28;20225;-88
2023/12/03 02:33:18;;;;;;;10.33;6.40;;;;;;;;;;5030818;28;20207;-89
2023/12/03 02:35:45;;;;;;;14.93;6.53;;;;;;;;;;5030818;28;20215;-88
2023/12/03 02:38:12;;;;;;;10.63;5.20;;;;;;;;;;5031254;28;20218;-88
2023/12/03 02:40:41;;;;;;;10.27;6.53;;;;;;;;;;5037338;28;20233;-88
2023/12/03 02:43:07;;;;;;;10.07;7.80;;;;;;;;;;5050509;28;20212;-86
2023/12/03 02:45:34;;;;;;;9.93;6.07;;;;;;;;;;5050630;28;20210;-88
2023/12/03 02:48:01;;;;;;;11.67;6.30;;;;;;;;;;5050087;28;20206;-88
2023/12/03 02:50:28;;;;;;;9.00;4.97;;;;;;;;;;5037704;28;20214;-87
2023/12/03 02:52:55;;;;;;;8.87;5.67;;;;;;;;;;5036852;28;20214;-87
2023/12/03 02:55:22;;;;;;;9.03;4.70;;;;;;;;;;5042744;28;20267;-87
2023/12/03 02:57:50;;;;;;;20.80;8.83;;;;;;;;;;5031009;28;20309;-87
2023/12/03 03:00:17;;;;;;;14.07;7.10;;;;;;;;;;5049894;28;20229;-88
2023/12/03 03:02:44;;;;;;;13.00;7.00;;;;;;;;;;5034071;28;20673;-88
2023/12/03 03:05:11;;;;;;;9.20;5.37;;;;;;;;;;5018625;28;20202;-87
2023/12/03 03:07:38;;;;;;;12.23;5.63;;;;;;;;;;5031500;28;20719;-87
2023/12/03 03:10:06;;;;;;;11.10;5.43;;;;;;;;;;5041603;28;20207;-88
2023/12/03 03:12:33;;;;;;;6.97;4.43;;;;;;;;;;5045503;28;20206;-87
2023/12/03 03:15:05;;;;;;;10.97;5.73;;;;;;;;;;5039790;28;20203;-87
2023/12/03 03:17:32;;;;;;;8.73;5.00;;;;;;;;;;5047012;28;20198;-88
2023/12/03 03:19:59;;;;;;;11.50;5.90;;;;;;;;;;5039667;28;20692;-87
2023/12/03 03:22:26;;;;;;;9.47;5.77;;;;;;;;;;5047381;28;20202;-88
2023/12/03 03:24:52;;;;;;;6.47;4.43;;;;;;;;;;5039313;27;20645;-88
2023/12/03 03:27:19;;;;;;;8.77;5.57;;;;;;;;;;5038547;28;20587;-87
2023/12/03 03:29:46;;;;;;;14.20;7.00;;;;;;;;;;5020855;28;20218;-88
2023/12/03 03:32:14;;;;;;;25.13;16.70;;;;;;;;;;5029914;28;20203;-87
2023/12/03 03:34:41;;;;;;;27.83;23.00;;;;;;;;;;5041008;28;20205;-87
2023/12/03 03:37:08;;;;;;;13.47;10.73;;;;;;;;;;5036438;28;20206;-87
2023/12/03 03:39:35;;;;;;;10.67;7.43;;;;;;;;;;5049456;28;20206;-87
2023/12/03 03:42:03;;;;;;;15.67;8.83;;;;;;;;;;5035923;28;20201;-87
2023/12/03 03:44:30;;;;;;;17.03;10.03;;;;;;;;;;5049725;27;20201;-88
2023/12/03 03:46:57;;;;;;;10.97;7.83;;;;;;;;;;5036048;28;20214;-88
2023/12/03 03:49:25;;;;;;;9.97;8.03;;;;;;;;;;5037733;28;20252;-88
2023/12/03 03:51:52;;;;;;;10.47;5.87;;;;;;;;;;5047876;28;20660;-88
2023/12/03 03:54:19;;;;;;;10.80;6.87;;;;;;;;;;5049333;28;20238;-87
2023/12/03 03:56:47;;;;;;;11.57;7.10;;;;;;;;;;5043247;28;20211;-88
2023/12/03 03:59:14;;;;;;;10.90;7.50;;;;;;;;;;5041849;28;20213;-88
2023/12/03 04:01:43;;;;;;;13.53;6.97;;;;;;;;;;5029580;28;20268;-87
2023/12/03 04:04:10;;;;;;;8.70;6.67;;;;;;;;;;5042486;28;20258;-87
2023/12/03 04:06:40;;;;;;;9.27;6.50;;;;;;;;;;5022578;28;20202;-88
2023/12/03 04:09:07;;;;;;;8.57;7.27;;;;;;;;;;5035699;28;20240;-87
2023/12/03 04:11:39;;;;;;;10.57;6.33;;;;;;;;;;5049178;28;20238;-87
2023/12/03 04:14:06;;;;;;;9.13;5.33;;;;;;;;;;5034314;28;20214;-88
2023/12/03 04:16:33;;;;;;;12.33;6.43;;;;;;;;;;5038448;28;20217;-88
2023/12/03 04:19:00;;;;;;;7.47;6.27;;;;;;;;;;5048329;28;20213;-89
2023/12/03 04:21:27;;;;;;;9.27;5.20;;;;;;;;;;5039874;28;20278;-87
2023/12/03 04:23:55;;;;;;;11.37;6.40;;;;;;;;;;5041991;28;20206;-88
2023/12/03 04:26:22;;;;;;;10.37;7.07;;;;;;;;;;5038606;28;20266;-88
2023/12/03 04:28:49;;;;;;;12.77;11.23;;;;;;;;;;5035423;28;20210;-88
2023/12/03 04:31:23;;;;;;;11.00;8.03;;;;;;;;;;5048794;28;20231;-88
2023/12/03 04:33:50;;;;;;;19.77;13.87;;;;;;;;;;5035679;28;20208;-88
2023/12/03 04:36:17;;;;;;;14.10;12.33;;;;;;;;;;5048761;28;20224;-87
2023/12/03 04:38:44;;;;;;;14.93;10.03;;;;;;;;;;5048451;28;20206;-88
2023/12/03 04:41:14;;;;;;;11.73;9.00;;;;;;;;;;5048434;28;20652;-88
2023/12/03 04:43:40;;;;;;;8.67;7.20;;;;;;;;;;5035629;28;20202;-88
2023/12/03 04:46:08;;;;;;;11.33;7.13;;;;;;;;;;5048886;28;20210;-88
2023/12/03 04:48:36;;;;;;;7.63;6.43;;;;;;;;;;5035250;28;20205;-88
2023/12/03 04:51:03;;;;;;;10.50;7.27;;;;;;;;;;5035625;28;20301;-88
2023/12/03 04:53:30;;;;;;;19.20;13.73;;;;;;;;;;5048429;28;20213;-88
2023/12/03 04:55:57;;;;;;;17.70;15.43;;;;;;;;;;5035878;28;20240;-88
2023/12/03 04:58:26;;;;;;;15.60;11.77;;;;;;;;;;5048210;28;20206;-88
2023/12/03 05:00:53;;;;;;;16.80;14.47;;;;;;;;;;5048134;27;20230;-87
2023/12/03 05:03:20;;;;;;;14.53;9.17;;;;;;;;;;5048477;28;20266;-87
2023/12/03 05:05:47;;;;;;;24.00;16.60;;;;;;;;;;5034780;28;20206;-88
2023/12/03 05:08:14;;;;;;;17.70;14.17;;;;;;;;;;5041269;28;20209;-87
2023/12/03 05:10:41;;;;;;;17.90;14.27;;;;;;;;;;5041827;28;20240;-88
2023/12/03 05:13:07;;;;;;;14.13;9.93;;;;;;;;;;5048234;28;20213;-88
2023/12/03 05:15:36;;;;;;;14.63;10.50;;;;;;;;;;5034026;28;20214;-88
2023/12/03 05:18:03;;;;;;;11.27;9.60;;;;;;;;;;5028172;28;20211;-88
2023/12/03 05:20:29;;;;;;;16.93;10.97;;;;;;;;;;5041703;27;20254;-88
2023/12/03 05:22:56;;;;;;;36.97;31.13;;;;;;;;;;5036260;28;20695;-88
2023/12/03 05:25:23;;;;;;;35.63;29.13;;;;;;;;;;5047815;28;20210;-88
2023/12/03 05:27:50;;;;;;;23.73;19.60;;;;;;;;;;5040593;28;20215;-88
2023/12/03 05:30:17;;;;;;;17.37;15.57;;;;;;;;;;5042539;28;20281;-87
2023/12/03 05:32:45;;;;;;;20.43;17.83;;;;;;;;;;5047643;28;20282;-88
2023/12/03 05:35:12;;;;;;;18.10;13.03;;;;;;;;;;5035143;28;20206;-88
2023/12/03 05:37:39;;;;;;;14.23;12.83;;;;;;;;;;5039797;28;20207;-88
2023/12/03 05:40:09;;;;;;;14.47;12.80;;;;;;;;;;5047170;28;20210;-87
2023/12/03 05:42:36;;;;;;;14.33;10.67;;;;;;;;;;5051403;28;20210;-88
2023/12/03 05:45:04;;;;;;;14.00;12.53;;;;;;;;;;5051583;28;20210;-88
2023/12/03 05:47:31;;;;;;;20.90;11.87;;;;;;;;;;5041227;28;20311;-88
2023/12/03 05:50:01;;;;;;;40.20;30.83;;;;;;;;;;5040731;28;20261;-88
2023/12/03 05:52:28;;;;;;;80.07;58.00;;;;;;;;;;5032889;28;20202;-88
2023/12/03 05:54:55;;;;;;;23.03;20.43;;;;;;;;;;5037790;28;20198;-88
2023/12/03 05:57:22;;;;;;;153.33;94.70;;;;;;;;;;5051297;28;20210;-88
2023/12/03 05:59:49;;;;;;;118.57;71.73;;;;;;;;;;5046504;28;20214;-87
2023/12/03 06:02:16;;;;;;;73.73;49.77;;;;;;;;;;5043140;28;20585;-88
2023/12/03 06:04:43;;;;;;;41.73;29.00;;;;;;;;;;5051297;27;20214;-88
2023/12/03 06:07:12;;;;;;;16.83;12.70;;;;;;;;;;5050724;28;20217;-88
2023/12/03 06:09:39;;;;;;;14.23;10.87;;;;;;;;;;5032447;28;20205;-87
2023/12/03 06:12:07;;;;;;;10.70;9.50;;;;;;;;;;5031291;28;20488;-88
2023/12/03 06:14:34;;;;;;;11.80;7.40;;;;;;;;;;5049484;28;20205;-88
2023/12/03 06:17:01;;;;;;;12.27;8.23;;;;;;;;;;5038834;28;20618;-88
2023/12/03 06:19:28;;;;;;;11.70;8.20;;;;;;;;;;5050342;28;20297;-88
2023/12/03 06:21:54;;;;;;;13.13;7.43;;;;;;;;;;5037986;28;20230;-88
2023/12/03 06:24:24;;;;;;;11.67;7.50;;;;;;;;;;5050635;28;20221;-87
2023/12/03 06:26:51;;;;;;;10.23;8.30;;;;;;;;;;5050725;28;20660;-88
2023/12/03 06:29:18;;;;;;;31.90;22.70;;;;;;;;;;5024554;28;20220;-87
2023/12/03 06:31:45;;;;;;;27.27;21.30;;;;;;;;;;5050562;28;20206;-88
2023/12/03 06:34:12;;;;;;;42.30;31.63;;;;;;;;;;5050503;27;20678;-88
2023/12/03 06:36:39;;;;;;;21.20;16.97;;;;;;;;;;5050490;28;20229;-89
2023/12/03 06:39:06;;;;;;;14.80;11.30;;;;;;;;;;5050335;28;20210;-88
2023/12/03 06:41:34;;;;;;;25.17;20.07;;;;;;;;;;5049904;28;20238;-88
2023/12/03 06:44:01;;;;;;;24.97;22.33;;;;;;;;;;5050773;28;20206;-88
2023/12/03 06:46:28;;;;;;;18.53;16.37;;;;;;;;;;5049112;28;20202;-88
2023/12/03 06:48:55;;;;;;;14.13;10.07;;;;;;;;;;5030403;28;20199;-88
2023/12/03 06:51:22;;;;;;;14.30;12.60;;;;;;;;;;5030195;28;20628;-88
2023/12/03 06:53:49;;;;;;;24.13;21.63;;;;;;;;;;5038530;28;20588;-88
2023/12/03 06:56:15;;;;;;;16.03;14.33;;;;;;;;;;5037129;28;20206;-88
2023/12/03 06:58:44;;;;;;;11.53;8.87;;;;;;;;;;5041963;28;20632;-88
2023/12/03 07:01:13;;;;;;;14.47;7.70;;;;;;;;;;5046022;28;20222;-88
2023/12/03 07:03:40;;;;;;;16.53;14.00;;;;;;;;;;5049959;28;20214;-89
2023/12/03 07:06:07;;;;;;;15.10;13.57;;;;;;;;;;5047124;28;20217;-88
2023/12/03 07:08:34;;;;;;;10.27;8.53;;;;;;;;;;5040685;28;20201;-89
2023/12/03 07:11:01;;;;;;;10.47;5.87;;;;;;;;;;5046203;28;20259;-88
2023/12/03 07:13:27;;;;;;;7.60;5.70;;;;;;;;;;5040057;28;20614;-88
2023/12/03 07:15:56;;;;;;;8.07;5.33;;;;;;;;;;5050601;27;20213;-88
2023/12/03 07:18:22;;;;;;;9.60;5.53;;;;;;;;;;5049735;28;20202;-88
2023/12/03 07:20:50;;;;;;;5.80;5.00;;;;;;;;;;5046321;28;20206;-87
2023/12/03 07:23:16;;;;;;;7.70;5.80;;;;;;;;;;5040712;28;20202;-88
2023/12/03 07:25:43;;;;;;;11.57;5.47;;;;;;;;;;5045998;28;20661;-88
2023/12/03 07:28:10;;;;;;;8.87;5.43;;;;;;;;;;5040443;28;20265;-89
2023/12/03 07:30:37;;;;;;;9.23;5.60;;;;;;;;;;5032054;28;20203;-88
2023/12/03 07:33:05;;;;;;;9.67;6.17;;;;;;;;;;5029769;28;20199;-89
2023/12/03 07:35:32;;;;;;;11.37;7.73;;;;;;;;;;5047546;28;20202;-88
2023/12/03 07:37:59;;;;;;;15.13;12.20;;;;;;;;;;5049686;28;20206;-88
2023/12/03 07:40:26;;;;;;;14.90;13.47;;;;;;;;;;5049577;28;20235;-88
2023/12/03 07:42:53;;;;;;;10.47;7.03;;;;;;;;;;5049681;27;20234;-89
2023/12/03 07:45:20;;;;;;;6.93;4.97;;;;;;;;;;5036137;28;20267;-87
2023/12/03 07:47:47;;;;;;;9.00;6.50;;;;;;;;;;5037416;28;20202;-88
2023/12/03 07:50:15;;;;;;;7.63;5.63;;;;;;;;;;5034862;28;20206;-88
2023/12/03 07:52:42;;;;;;;10.43;5.83;;;;;;;;;;5049381;28;20254;-88
2023/12/03 07:55:09;;;;;;;13.03;6.67;;;;;;;;;;5030151;28;20290;-89
2023/12/03 07:57:36;;;;;;;10.67;5.70;;;;;;;;;;5029585;28;20238;-88
2023/12/03 08:00:04;;;;;;;13.97;5.10;;;;;;;;;;5042325;28;20211;-88
2023/12/03 08:02:31;;;;;;;8.57;5.50;;;;;;;;;;5028719;28;20226;-88
2023/12/03 08:04:58;;;;;;;8.20;5.50;;;;;;;;;;5036436;28;20589;-89
2023/12/03 08:07:27;;;;;;;15.03;8.03;;;;;;;;;;5049639;28;20664;-88
2023/12/03 08:09:54;;;;;;;31.43;20.23;;;;;;;;;;5042378;28;20210;-88
2023/12/03 08:12:21;;;;;;;34.77;20.90;;;;;;;;;;5043321;28;20202;-87
2023/12/03 08:14:48;;;;;;;16.30;10.93;;;;;;;;;;5049436;28;20210;-88
2023/12/03 08:17:15;;;;;;;12.27;8.63;;;;;;;;;;5035325;28;20221;-88
2023/12/03 08:19:41;;;;;;;9.03;5.97;;;;;;;;;;5048971;28;20201;-88
2023/12/03 08:22:08;;;;;;;8.93;5.40;;;;;;;;;;5035838;28;20241;-89
2023/12/03 08:24:37;;;;;;;9.03;6.27;;;;;;;;;;5041034;28;20270;-88
2023/12/03 08:27:05;;;;;;;9.17;6.57;;;;;;;;;;5042387;28;20229;-88
2023/12/03 08:29:35;;;;;;;11.80;5.57;;;;;;;;;;5029133;28;20210;-88
2023/12/03 08:32:06;;;;;;;9.03;5.43;;;;;;;;;;5031973;28;20224;-88
2023/12/03 08:34:33;;;;;;;10.13;6.27;;;;;;;;;;5038762;28;20289;-88
2023/12/03 08:37:05;;;;;;;13.70;6.13;;;;;;;;;;5045001;28;20228;-88
2023/12/03 08:39:33;;;;;;;12.23;5.43;;;;;;;;;;5048563;28;20766;-88
2023/12/03 08:42:06;;;;;;;8.87;4.20;;;;;;;;;;5047945;28;20301;-88
2023/12/03 08:44:35;;;;;;;9.23;5.50;;;;;;;;;;5035724;27;20242;-88
2023/12/03 08:47:03;;;;;;;7.60;4.93;;;;;;;;;;5035348;28;20205;-89
2023/12/03 08:49:33;;;;;;;13.07;5.37;;;;;;;;;;5035707;28;20213;-86
2023/12/03 08:52:00;;;;;;;13.77;5.93;;;;;;;;;;5015694;28;20233;-85
2023/12/03 08:54:27;;;;;;;10.70;5.57;;;;;;;;;;5028664;28;20225;-89
2023/12/03 08:56:54;;;;;;;9.53;5.70;;;;;;;;;;5035956;28;20680;-86
2023/12/03 08:59:24;;;;;;;14.50;7.57;;;;;;;;;;5035440;28;20601;-88
2023/12/03 09:01:50;;;;;;;11.30;4.50;;;;;;;;;;5048450;28;20260;-87
2023/12/03 09:04:18;;;;;;;7.40;3.77;;;;;;;;;;5046846;27;20202;-86
2023/12/03 09:06:46;;;;;;;9.27;4.07;;;;;;;;;;5037251;28;20271;-87
2023/12/03 09:09:15;;;;;;;7.43;3.60;;;;;;;;;;5035346;28;20210;-88
2023/12/03 09:11:43;;;;;;;6.37;3.20;;;;;;;;;;5040137;28;20229;-89
2023/12/03 09:14:11;;;;;;;9.80;3.67;;;;;;;;;;5034683;28;20298;-88
2023/12/03 09:16:39;;;;;;;13.77;4.07;;;;;;;;;;5051904;28;20647;-86
2023/12/03 09:19:06;;;;;;;9.40;3.27;;;;;;;;;;5048465;28;20213;-87
2023/12/03 09:21:32;;;;;;;7.70;3.77;;;;;;;;;;5031787;28;20275;-86
2023/12/03 09:23:59;;;;;;;7.17;3.67;;;;;;;;;;5045114;28;20213;-89
2023/12/03 09:26:26;;;;;;;4.70;3.50;;;;;;;;;;5041482;28;20206;-88
2023/12/03 09:28:53;;;;;;;6.37;3.57;;;;;;;;;;5051407;27;20225;-88
2023/12/03 09:31:20;;;;;;;5.50;3.43;;;;;;;;;;5051476;27;20574;-88
2023/12/03 09:33:48;;;;;;;5.43;3.40;;;;;;;;;;5047659;28;20202;-86
2023/12/03 09:36:15;;;;;;;9.50;3.77;;;;;;;;;;5031352;28;20206;-88
2023/12/03 09:38:42;;;;;;;4.50;3.10;;;;;;;;;;5048305;28;20209;-90
2023/12/03 09:41:10;;;;;;;4.57;3.27;;;;;;;;;;5040796;28;20310;-88
2023/12/03 09:43:38;;;;;;;22.53;12.13;;;;;;;;;;5049515;28;20278;-89
2023/12/03 09:46:08;;;;;;;6.93;5.27;;;;;;;;;;5039884;28;20245;-89
2023/12/03 09:48:39;;;;;;;12.03;4.17;;;;;;;;;;5049836;28;20244;-88
2023/12/03 09:51:08;;;;;;;3.60;2.93;;;;;;;;;;5038565;28;20205;-87
2023/12/03 09:53:36;;;;;;;7.37;3.97;;;;;;;;;;5044124;28;20203;-88
2023/12/03 09:56:04;;;;;;;4.70;2.80;;;;;;;;;;5031438;28;20218;-88
2023/12/03 09:58:31;;;;;;;7.43;3.37;;;;;;;;;;5044010;28;20298;-88
2023/12/03 10:00:59;;;;;;;6.20;3.77;;;;;;;;;;5044603;28;20209;-88
2023/12/03 10:03:26;;;;;;;5.17;3.90;;;;;;;;;;5017834;28;20227;-88
2023/12/03 10:05:53;;;;;;;6.43;5.50;;;;;;;;;;5045083;28;20680;-88
2023/12/03 10:08:22;;;;;;;4.03;3.20;;;;;;;;;;5051414;28;20730;-88
2023/12/03 10:10:54;;;;;;;6.83;3.30;;;;;;;;;;5038563;28;20265;-87
2023/12/03 10:13:21;;;;;;;5.60;3.50;;;;;;;;;;5042499;28;20202;-87
2023/12/03 10:15:48;;;;;;;7.17;4.73;;;;;;;;;;5049747;28;20896;-88
2023/12/03 10:18:16;;;;;;;2.70;2.50;;;;;;;;;;5049361;28;20208;-83
2023/12/03 10:20:43;;;;;;;5.57;4.07;;;;;;;;;;5045889;28;20230;-87
2023/12/03 10:23:15;;;;;;;7.37;3.73;;;;;;;;;;5030313;28;20619;-89
2023/12/03 10:25:47;;;;;;;8.27;4.73;;;;;;;;;;5037449;28;20223;-85
2023/12/03 10:28:13;;;;;;;7.30;3.50;;;;;;;;;;5039327;27;20238;-87
2023/12/03 10:30:41;;;;;;;7.00;2.90;;;;;;;;;;5049170;28;20206;-87
2023/12/03 10:33:11;;;;;;;6.63;3.20;;;;;;;;;;5038630;28;20661;-89
2023/12/03 10:35:39;;;;;;;4.63;2.83;;;;;;;;;;5035927;28;20205;-88
2023/12/03 10:38:08;;;;;;;5.17;3.40;;;;;;;;;;5050414;28;20206;-85
2023/12/03 10:40:35;;;;;;;5.50;3.63;;;;;;;;;;5029488;28;20216;-89
2023/12/03 10:43:05;;;;;;;5.30;4.30;;;;;;;;;;5047111;28;20234;-88
2023/12/03 10:45:32;;;;;;;8.00;3.07;;;;;;;;;;5040384;28;20237;-88
2023/12/03 10:48:04;;;;;;;4.37;3.07;;;;;;;;;;5042322;28;20239;-88
2023/12/03 10:50:31;;;;;;;12.80;7.50;;;;;;;;;;5030688;28;20293;-87
2023/12/03 10:53:03;;;;;;;6.83;4.93;;;;;;;;;;5043759;28;20217;-87
2023/12/03 10:55:30;;;;;;;4.60;3.37;;;;;;;;;;5041234;28;20210;-87
2023/12/03 10:58:04;;;;;;;4.00;3.60;;;;;;;;;;5036417;27;20206;-88
2023/12/03 11:00:37;;;;;;;7.73;3.90;;;;;;;;;;5037687;28;20305;-89
2023/12/03 11:03:12;;;;;;;6.83;4.27;;;;;;;;;;5030043;28;20321;-88
2023/12/03 11:05:43;;;;;;;7.63;4.13;;;;;;;;;;5030271;28;20248;-87
2023/12/03 11:08:12;;;;;;;7.83;4.30;;;;;;;;;;5041189;28;20209;-88
2023/12/03 11:10:39;;;;;;;6.50;4.30;;;;;;;;;;5032383;28;20232;-90
2023/12/03 11:13:09;;;;;;;8.07;4.50;;;;;;;;;;5037300;28;20291;-88
2023/12/03 11:15:36;;;;;;;6.20;4.57;;;;;;;;;;5036601;28;20246;-88
2023/12/03 11:18:04;;;;;;;8.90;4.03;;;;;;;;;;5041780;28;20207;-88
2023/12/03 11:20:35;;;;;;;10.10;7.33;;;;;;;;;;5030145;28;20598;-88
2023/12/03 11:23:14;;;;;;;6.33;3.90;;;;;;;;;;5030108;28;20226;-88
2023/12/03 11:25:47;;;;;;;5.63;4.87;;;;;;;;;;5042942;28;20235;-88
2023/12/03 11:28:15;;;;;;;5.40;3.90;;;;;;;;;;5029677;28;20215;-88
2023/12/03 11:30:43;;;;;;;5.50;4.67;;;;;;;;;;5040803;27;20214;-88
2023/12/03 11:33:14;;;;;;;9.23;3.90;;;;;;;;;;5043895;28;20206;-87
2023/12/03 11:35:42;;;;;;;4.67;4.23;;;;;;;;;;5049470;28;20221;-87
2023/12/03 11:38:10;;;;;;;9.17;5.47;;;;;;;;;;5047214;28;20216;-88
2023/12/03 11:40:37;;;;;;;10.33;6.23;;;;;;;;;;5029286;28;20210;-88
2023/12/03 11:43:09;;;;;;;11.30;5.27;;;;;;;;;;5028589;28;20226;-88
2023/12/03 11:45:44;;;;;;;4.57;4.17;;;;;;;;;;5030021;28;20585;-88
2023/12/03 11:48:14;;;;;;;5.50;4.27;;;;;;;;;;5033272;28;20209;-87
2023/12/03 11:50:42;;;;;;;6.13;4.70;;;;;;;;;;5047867;27;20590;-88
2023/12/03 11:53:09;;;;;;;6.67;5.00;;;;;;;;;;5047525;28;20236;-89
2023/12/03 11:55:39;;;;;;;8.10;5.70;;;;;;;;;;5041702;28;20219;-88
2023/12/03 11:58:07;;;;;;;4.80;3.87;;;;;;;;;;5047547;28;20294;-88
2023/12/03 12:00:35;;;;;;;6.47;5.13;;;;;;;;;;5035892;28;20218;-88
2023/12/03 12:03:04;;;;;;;5.60;4.53;;;;;;;;;;5042301;28;20612;-88
2023/12/03 12:05:32;;;;;;;6.83;3.93;;;;;;;;;;5028352;28;20212;-88
2023/12/03 12:08:01;;;;;;;3.90;3.17;;;;;;;;;;5042454;27;20727;-88
2023/12/03 12:10:28;;;;;;;5.07;3.77;;;;;;;;;;5040623;28;20230;-89
2023/12/03 12:12:56;;;;;;;5.87;4.10;;;;;;;;;;5034970;28;20210;-87
2023/12/03 12:15:23;;;;;;;4.43;3.93;;;;;;;;;;5048893;28;20210;-88
2023/12/03 12:17:52;;;;;;;9.27;4.37;;;;;;;;;;5049022;28;20202;-89
2023/12/03 12:20:23;;;;;;;9.83;4.33;;;;;;;;;;5049227;28;20676;-88
2023/12/03 12:22:51;;;;;;;3.90;3.37;;;;;;;;;;5016217;28;20226;-87
2023/12/03 12:25:19;;;;;;;4.57;3.70;;;;;;;;;;5029318;28;20688;-87
2023/12/03 12:27:46;;;;;;;5.80;3.47;;;;;;;;;;5048332;27;20205;-87
2023/12/03 12:30:17;;;;;;;8.23;3.70;;;;;;;;;;5014834;28;20207;-88
2023/12/03 12:32:45;;;;;;;6.93;4.00;;;;;;;;;;5029379;28;20218;-87
2023/12/03 12:35:15;;;;;;;5.10;4.27;;;;;;;;;;5041326;28;20210;-88
2023/12/03 12:37:43;;;;;;;4.70;3.37;;;;;;;;;;5037135;28;20592;-89
2023/12/03 12:40:12;;;;;;;8.27;3.27;;;;;;;;;;5046623;28;20659;-88
2023/12/03 12:42:42;;;;;;;6.83;3.80;;;;;;;;;;5038201;28;20225;-88
2023/12/03 12:45:27;;;;;;;5.60;3.60;;;;;;;;;;5032014;28;20614;-88
2023/12/03 12:47:54;;;;;;;9.17;4.07;;;;;;;;;;5043924;28;20248;-87
2023/12/03 12:50:22;;;;;;;7.43;4.40;;;;;;;;;;5051897;27;20209;-87
2023/12/03 12:52:58;;;;;;;11.67;7.03;;;;;;;;;;5049360;27;20593;-90
2023/12/03 12:55:28;;;;;;;12.00;9.60;;;;;;;;;;5032349;28;20319;-88
2023/12/03 12:57:55;;;;;;;11.77;7.90;;;;;;;;;;5034757;28;20603;-88
2023/12/03 13:00:22;;;;;;;7.87;5.40;;;;;;;;;;5052480;28;20828;-90
2023/12/03 13:02:49;;;;;;;6.27;3.53;;;;;;;;;;5050652;28;20244;-89
2023/12/03 13:05:17;;;;;;;4.97;3.53;;;;;;;;;;5052040;28;20216;-88
2023/12/03 13:07:44;;;;;;;6.63;4.20;;;;;;;;;;5048113;28;20214;-88
2023/12/03 13:10:15;;;;;;;7.87;4.40;;;;;;;;;;5031561;28;20215;-87
2023/12/03 13:12:43;;;;;;;7.37;3.57;;;;;;;;;;5035479;28;20198;-90
2023/12/03 13:15:12;;;;;;;4.33;3.47;;;;;;;;;;5051189;27;20647;-88
2023/12/03 13:17:46;;;;;;;4.87;3.50;;;;;;;;;;5026470;28;20238;-90
2023/12/03 13:20:17;;;;;;;3.83;2.37;;;;;;;;;;5023281;28;20267;-89
2023/12/03 13:22:44;;;;;;;4.67;2.73;;;;;;;;;;5050632;28;20213;-88
2023/12/03 13:25:16;;;;;;;6.60;3.00;;;;;;;;;;5038575;28;20218;-88
2023/12/03 13:27:43;;;;;;;2.90;2.43;;;;;;;;;;5024963;28;20209;-89
2023/12/03 13:30:11;;;;;;;4.13;2.40;;;;;;;;;;5050197;28;20206;-90
2023/12/03 13:32:39;;;;;;;5.50;2.97;;;;;;;;;;5039192;28;20209;-89
2023/12/03 13:35:08;;;;;;;4.33;2.40;;;;;;;;;;5051275;28;20206;-88
2023/12/03 13:37:35;;;;;;;5.63;3.13;;;;;;;;;;5050398;28;20244;-88
2023/12/03 13:40:06;;;;;;;5.20;3.07;;;;;;;;;;5050347;27;20216;-89
2023/12/03 13:42:34;;;;;;;4.53;3.07;;;;;;;;;;5040645;28;20228;-90
2023/12/03 13:45:03;;;;;;;5.73;2.90;;;;;;;;;;5051264;27;20218;-89
2023/12/03 13:47:31;;;;;;;3.00;2.70;;;;;;;;;;5050289;28;20293;-87
2023/12/03 13:49:58;;;;;;;10.50;6.20;;;;;;;;;;5034273;28;20206;-90
2023/12/03 13:52:25;;;;;;;7.57;4.33;;;;;;;;;;5031688;28;20215;-90
2023/12/03 13:54:52;;;;;;;9.10;7.03;;;;;;;;;;5033758;28;20240;-89
2023/12/03 13:57:19;;;;;;;8.00;3.83;;;;;;;;;;5040091;28;20229;-88
2023/12/03 13:59:47;;;;;;;9.17;4.43;;;;;;;;;;5046479;28;20594;-90
2023/12/03 14:02:14;;;;;;;6.87;3.80;;;;;;;;;;5049902;28;20210;-87
2023/12/03 14:04:41;;;;;;;8.23;4.27;;;;;;;;;;5047268;28;20646;-87
2023/12/03 14:07:09;;;;;;;7.83;3.90;;;;;;;;;;5024533;28;20237;-86
2023/12/03 14:09:36;;;;;;;4.30;3.30;;;;;;;;;;5045101;28;20211;-89
2023/12/03 14:12:04;;;;;;;3.30;2.57;;;;;;;;;;5025186;28;20285;-88
2023/12/03 14:14:31;;;;;;;2.90;2.50;;;;;;;;;;5036378;28;20214;-88
2023/12/03 14:17:04;;;;;;;4.90;2.33;;;;;;;;;;5049695;28;20220;-87
2023/12/03 14:19:31;;;;;;;5.90;2.67;;;;;;;;;;5037585;28;20206;-88
2023/12/03 14:22:00;;;;;;;6.83;3.07;;;;;;;;;;5037598;28;20218;-88
2023/12/03 14:24:27;;;;;;;5.13;2.67;;;;;;;;;;5051136;28;20229;-90
2023/12/03 14:26:54;;;;;;;3.63;2.57;;;;;;;;;;5049832;27;20223;-88
2023/12/03 14:29:21;;;;;;;5.03;4.33;;;;;;;;;;5038061;28;20292;-88
2023/12/03 14:31:48;;;;;;;6.97;4.93;;;;;;;;;;5035370;28;20210;-88
2023/12/03 14:34:17;;;;;;;6.77;4.60;;;;;;;;;;5039136;28;20628;-87
2023/12/03 14:36:45;;;;;;;4.80;2.90;;;;;;;;;;5036246;28;20229;-88
2023/12/03 14:39:12;;;;;;;4.60;3.30;;;;;;;;;;5050374;28;20703;-88